createdAt,value
2023-01-20T00:00:41.760Z,0
2023-01-20T00:01:41.734Z,0
2023-01-20T00:02:41.802Z,0
2023-01-20T00:03:41.771Z,0
2023-01-20T00:04:41.731Z,0
2023-01-20T00:05:41.737Z,0
2023-01-20T00:06:41.750Z,0
2023-01-20T00:07:41.736Z,0
2023-01-20T00:08:41.724Z,0
2023-01-20T00:09:41.724Z,0
2023-01-20T00:10:41.736Z,0
2023-01-20T00:11:41.752Z,0
2023-01-20T00:12:41.729Z,0
2023-01-20T00:13:41.736Z,0
2023-01-20T00:14:41.746Z,0
2023-01-20T00:15:41.818Z,0
2023-01-20T00:16:41.734Z,0
2023-01-20T00:17:41.738Z,0
2023-01-20T00:18:41.761Z,0
2023-01-20T00:19:41.756Z,0
2023-01-20T00:20:41.727Z,0
2023-01-20T00:21:41.746Z,0
2023-01-20T00:22:41.753Z,0
2023-01-20T00:23:41.756Z,0
2023-01-20T00:24:41.727Z,0
2023-01-20T00:25:41.740Z,5.9
2023-01-20T00:26:41.746Z,5.5
2023-01-20T00:27:41.738Z,6.1000000000000005
2023-01-20T00:28:41.742Z,2.9000000000000004
2023-01-20T00:29:41.737Z,5.1000000000000005
2023-01-20T00:30:41.790Z,3.9000000000000004
2023-01-20T00:31:41.847Z,1.1
2023-01-20T00:32:41.740Z,2.7
2023-01-20T00:33:41.741Z,1.8
2023-01-20T00:34:41.780Z,3
2023-01-20T00:35:41.746Z,1.4000000000000001
2023-01-20T00:36:41.754Z,4.3
2023-01-20T00:37:41.747Z,3
2023-01-20T00:38:41.745Z,2.5
2023-01-20T00:39:41.757Z,4.1000000000000005
2023-01-20T00:40:41.749Z,3.3000000000000003
2023-01-20T00:41:41.757Z,1.9000000000000001
2023-01-20T00:42:41.764Z,0
2023-01-20T00:43:41.766Z,3.2
2023-01-20T00:44:41.751Z,3
2023-01-20T00:45:41.758Z,1.6
2023-01-20T00:46:41.823Z,3.4000000000000004
2023-01-20T00:47:41.761Z,2.7
2023-01-20T00:48:41.767Z,1.3
2023-01-20T00:49:41.781Z,2.3000000000000003
2023-01-20T00:50:41.781Z,3.3000000000000003
2023-01-20T00:51:41.765Z,3.1
2023-01-20T00:52:41.772Z,3.5
2023-01-20T00:53:41.756Z,3.2
2023-01-20T00:54:41.769Z,3.5
2023-01-20T00:55:41.762Z,1.7000000000000002
2023-01-20T00:56:41.802Z,0
2023-01-20T00:57:41.771Z,0
2023-01-20T00:58:41.775Z,0
2023-01-20T00:59:41.774Z,0
2023-01-20T01:00:41.821Z,0
2023-01-20T01:01:41.945Z,0
2023-01-20T01:02:41.845Z,0
2023-01-20T01:03:41.780Z,0
2023-01-20T01:04:41.775Z,0
2023-01-20T01:05:41.762Z,0
2023-01-20T01:06:41.798Z,0
2023-01-20T01:07:41.778Z,0
2023-01-20T01:08:41.768Z,0
2023-01-20T01:09:41.776Z,0
2023-01-20T01:10:41.784Z,0
2023-01-20T01:11:41.788Z,0
2023-01-20T01:12:41.776Z,0
2023-01-20T01:13:41.777Z,0
2023-01-20T01:14:41.769Z,0
2023-01-20T01:15:41.772Z,0
2023-01-20T01:16:41.778Z,0
2023-01-20T01:17:41.769Z,0
2023-01-20T01:18:41.796Z,0
2023-01-20T01:19:41.785Z,0
2023-01-20T01:20:41.770Z,0
2023-01-20T01:21:41.776Z,0
2023-01-20T01:22:41.818Z,0
2023-01-20T01:23:41.795Z,0
2023-01-20T01:24:41.787Z,0
2023-01-20T01:25:41.788Z,0
2023-01-20T01:26:41.776Z,0
2023-01-20T01:27:41.792Z,0
2023-01-20T01:28:41.777Z,0
2023-01-20T01:29:41.777Z,0
2023-01-20T01:30:41.827Z,0
2023-01-20T01:31:41.817Z,0
2023-01-20T01:32:41.787Z,0
2023-01-20T01:33:41.775Z,0
2023-01-20T01:34:41.798Z,0
2023-01-20T01:35:41.790Z,0
2023-01-20T01:36:41.790Z,0
2023-01-20T01:37:41.804Z,0
2023-01-20T01:38:41.808Z,0
2023-01-20T01:39:41.782Z,0
2023-01-20T01:40:41.813Z,0
2023-01-20T01:41:41.790Z,0
2023-01-20T01:42:42.817Z,0
2023-01-20T01:43:41.781Z,0
2023-01-20T01:44:41.817Z,0
2023-01-20T01:45:41.840Z,0
2023-01-20T01:46:41.804Z,0
2023-01-20T01:47:41.798Z,0
2023-01-20T01:48:41.823Z,0
2023-01-20T01:49:41.800Z,0
2023-01-20T01:50:41.791Z,0
2023-01-20T01:51:41.822Z,0
2023-01-20T01:52:41.794Z,0
2023-01-20T01:53:41.815Z,0
2023-01-20T01:54:41.813Z,0
2023-01-20T01:55:41.805Z,0
2023-01-20T01:56:41.805Z,0
2023-01-20T01:57:41.807Z,0
2023-01-20T01:58:41.796Z,0
2023-01-20T01:59:41.797Z,0
2023-01-20T02:00:41.822Z,0
2023-01-20T02:01:41.921Z,0
2023-01-20T02:02:41.840Z,0
2023-01-20T02:03:41.799Z,0
2023-01-20T02:04:41.809Z,0
2023-01-20T02:05:41.804Z,0
2023-01-20T02:06:41.805Z,0
2023-01-20T02:07:41.790Z,0
2023-01-20T02:08:41.803Z,0
2023-01-20T02:09:41.800Z,0
2023-01-20T02:10:41.820Z,0
2023-01-20T02:11:41.834Z,0
2023-01-20T02:12:41.816Z,0
2023-01-20T02:13:41.802Z,0
2023-01-20T02:14:41.807Z,0
2023-01-20T02:15:41.804Z,0
2023-01-20T02:16:41.922Z,0
2023-01-20T02:17:41.815Z,0
2023-01-20T02:18:41.814Z,0
2023-01-20T02:19:41.812Z,0
2023-01-20T02:20:41.806Z,0
2023-01-20T02:21:41.808Z,0
2023-01-20T02:22:41.816Z,0
2023-01-20T02:23:41.826Z,0
2023-01-20T02:24:41.836Z,0
2023-01-20T02:25:41.805Z,0
2023-01-20T02:26:41.844Z,0
2023-01-20T02:27:41.807Z,0
2023-01-20T02:28:41.836Z,0
2023-01-20T02:29:41.807Z,0
2023-01-20T02:30:41.858Z,0
2023-01-20T02:31:41.874Z,0
2023-01-20T02:32:41.813Z,0
2023-01-20T02:33:41.832Z,0
2023-01-20T02:34:41.825Z,0
2023-01-20T02:35:41.837Z,0
2023-01-20T02:36:41.818Z,0
2023-01-20T02:37:41.816Z,0
2023-01-20T02:38:41.845Z,0
2023-01-20T02:39:41.822Z,0
2023-01-20T02:40:41.836Z,0
2023-01-20T02:41:41.826Z,0
2023-01-20T02:42:41.848Z,0
2023-01-20T02:43:41.827Z,0
2023-01-20T02:44:41.854Z,0
2023-01-20T02:45:41.871Z,0
2023-01-20T02:46:41.832Z,0
2023-01-20T02:47:41.833Z,0
2023-01-20T02:48:41.824Z,0
2023-01-20T02:49:41.839Z,0
2023-01-20T02:50:41.835Z,0
2023-01-20T02:51:41.819Z,0
2023-01-20T02:52:41.836Z,0
2023-01-20T02:53:41.838Z,0
2023-01-20T02:54:41.828Z,0
2023-01-20T02:55:41.826Z,0
2023-01-20T02:56:41.844Z,0
2023-01-20T02:57:41.834Z,0
2023-01-20T02:58:41.858Z,0
2023-01-20T02:59:41.829Z,0
2023-01-20T03:00:41.826Z,0
2023-01-20T03:01:41.920Z,0
2023-01-20T03:02:41.825Z,0
2023-01-20T03:03:41.864Z,0
2023-01-20T03:04:41.826Z,0
2023-01-20T03:05:41.870Z,0
2023-01-20T03:06:41.833Z,0
2023-01-20T03:07:41.850Z,0
2023-01-20T03:08:41.827Z,0
2023-01-20T03:09:41.832Z,0
2023-01-20T03:10:41.846Z,0
2023-01-20T03:11:41.824Z,0
2023-01-20T03:12:41.845Z,0
2023-01-20T03:13:41.831Z,0
2023-01-20T03:14:41.869Z,0
2023-01-20T03:15:41.836Z,0
2023-01-20T03:16:41.898Z,0
2023-01-20T03:17:41.843Z,0
2023-01-20T03:18:41.823Z,0
2023-01-20T03:19:41.842Z,0
2023-01-20T03:20:41.840Z,0
2023-01-20T03:21:41.836Z,0
2023-01-20T03:22:41.844Z,0
2023-01-20T03:23:41.847Z,0
2023-01-20T03:24:41.843Z,0
2023-01-20T03:25:41.842Z,0
2023-01-20T03:26:41.849Z,0
2023-01-20T03:27:41.847Z,0
2023-01-20T03:28:41.844Z,0
2023-01-20T03:29:41.857Z,0
2023-01-20T03:30:41.985Z,0
2023-01-20T03:31:41.973Z,0
2023-01-20T03:32:41.842Z,0
2023-01-20T03:33:41.846Z,0
2023-01-20T03:34:41.849Z,0
2023-01-20T03:35:41.847Z,0
2023-01-20T03:36:41.853Z,0
2023-01-20T03:37:41.849Z,0
2023-01-20T03:38:41.857Z,0
2023-01-20T03:39:41.851Z,0
2023-01-20T03:40:41.853Z,0
2023-01-20T03:41:41.863Z,0
2023-01-20T03:42:41.869Z,0
2023-01-20T03:43:41.843Z,0
2023-01-20T03:44:41.851Z,0
2023-01-20T03:45:41.886Z,0
2023-01-20T03:46:41.872Z,0
2023-01-20T03:47:41.847Z,0
2023-01-20T03:48:41.851Z,0
2023-01-20T03:49:41.861Z,0
2023-01-20T03:50:41.849Z,0
2023-01-20T03:51:41.851Z,0
2023-01-20T03:52:46.831Z,0
2023-01-20T03:53:41.869Z,0
2023-01-20T03:54:41.856Z,0
2023-01-20T03:55:41.855Z,0
2023-01-20T03:56:41.861Z,0
2023-01-20T03:57:41.852Z,0
2023-01-20T03:58:41.856Z,0
2023-01-20T03:59:41.857Z,0
2023-01-20T04:00:41.855Z,0
2023-01-20T04:01:41.972Z,0
2023-01-20T04:02:41.888Z,0
2023-01-20T04:03:41.983Z,0
2023-01-20T04:04:41.859Z,0
2023-01-20T04:05:41.885Z,0
2023-01-20T04:06:41.854Z,0
2023-01-20T04:07:41.861Z,0
2023-01-20T04:08:41.852Z,0
2023-01-20T04:09:41.870Z,0
2023-01-20T04:10:41.881Z,0
2023-01-20T04:11:41.855Z,0
2023-01-20T04:12:41.863Z,0
2023-01-20T04:13:41.863Z,0
2023-01-20T04:14:41.860Z,0
2023-01-20T04:15:41.869Z,0
2023-01-20T04:16:41.863Z,0
2023-01-20T04:17:41.870Z,0
2023-01-20T04:18:41.888Z,0
2023-01-20T04:19:41.886Z,0
2023-01-20T04:20:41.865Z,0
2023-01-20T04:21:41.864Z,0
2023-01-20T04:22:41.869Z,0
2023-01-20T04:23:41.848Z,0
2023-01-20T04:24:41.864Z,0
2023-01-20T04:25:41.874Z,0
2023-01-20T04:26:41.862Z,0
2023-01-20T04:27:41.863Z,0
2023-01-20T04:28:41.867Z,0
2023-01-20T04:29:41.855Z,0
2023-01-20T04:30:41.945Z,0
2023-01-20T04:31:41.909Z,0
2023-01-20T04:32:41.864Z,0
2023-01-20T04:33:41.858Z,0
2023-01-20T04:34:41.882Z,0
2023-01-20T04:35:41.865Z,0
2023-01-20T04:36:41.875Z,0
2023-01-20T04:37:41.855Z,0
2023-01-20T04:38:41.866Z,0
2023-01-20T04:39:41.876Z,0
2023-01-20T04:40:41.857Z,0
2023-01-20T04:41:41.868Z,0
2023-01-20T04:42:41.902Z,0
2023-01-20T04:43:41.860Z,0
2023-01-20T04:44:41.868Z,0
2023-01-20T04:45:41.927Z,0
2023-01-20T04:46:41.966Z,0
2023-01-20T04:47:41.858Z,0
2023-01-20T04:48:41.854Z,0
2023-01-20T04:49:41.857Z,0
2023-01-20T04:50:41.905Z,0
2023-01-20T04:51:41.868Z,0
2023-01-20T04:52:41.878Z,0
2023-01-20T04:53:41.869Z,0
2023-01-20T04:54:41.892Z,0
2023-01-20T04:55:41.866Z,0
2023-01-20T04:56:41.867Z,0
2023-01-20T04:57:41.872Z,0
2023-01-20T04:58:41.893Z,0
2023-01-20T04:59:41.874Z,0
2023-01-20T05:00:43.599Z,0
2023-01-20T05:01:42.118Z,0
2023-01-20T05:02:41.920Z,0
2023-01-20T05:03:41.885Z,0
2023-01-20T05:04:41.873Z,0
2023-01-20T05:05:41.868Z,0
2023-01-20T05:06:41.911Z,0
2023-01-20T05:07:41.877Z,0
2023-01-20T05:08:41.881Z,0
2023-01-20T05:09:41.878Z,0
2023-01-20T05:10:41.876Z,0
2023-01-20T05:11:41.878Z,0
2023-01-20T05:12:41.863Z,0
2023-01-20T05:13:41.877Z,0
2023-01-20T05:14:41.862Z,0
2023-01-20T05:15:41.941Z,0
2023-01-20T05:16:41.877Z,0
2023-01-20T05:17:41.890Z,0
2023-01-20T05:18:41.875Z,0
2023-01-20T05:19:41.872Z,0
2023-01-20T05:20:41.873Z,0
2023-01-20T05:21:41.868Z,0
2023-01-20T05:22:41.993Z,0
2023-01-20T05:23:41.873Z,0
2023-01-20T05:24:41.890Z,0
2023-01-20T05:25:41.861Z,0
2023-01-20T05:26:41.870Z,0
2023-01-20T05:27:41.879Z,0
2023-01-20T05:28:41.876Z,0
2023-01-20T05:29:41.888Z,0
2023-01-20T05:30:41.984Z,0
2023-01-20T05:31:41.958Z,0
2023-01-20T05:32:41.888Z,0
2023-01-20T05:33:41.875Z,0
2023-01-20T05:34:41.876Z,0
2023-01-20T05:35:41.877Z,0
2023-01-20T05:36:41.896Z,0
2023-01-20T05:37:41.876Z,0
2023-01-20T05:38:41.914Z,0
2023-01-20T05:39:41.866Z,0
2023-01-20T05:40:41.877Z,0
2023-01-20T05:41:41.889Z,0
2023-01-20T05:42:41.888Z,0
2023-01-20T05:43:41.877Z,0
2023-01-20T05:44:41.887Z,0
2023-01-20T05:45:41.888Z,0
2023-01-20T05:46:41.933Z,0
2023-01-20T05:47:41.882Z,0
2023-01-20T05:48:41.878Z,0
2023-01-20T05:49:41.876Z,0
2023-01-20T05:50:41.869Z,0
2023-01-20T05:51:41.871Z,0
2023-01-20T05:52:41.874Z,0
2023-01-20T05:53:41.879Z,0
2023-01-20T05:54:41.919Z,0
2023-01-20T05:55:41.875Z,0
2023-01-20T05:56:41.883Z,0
2023-01-20T05:57:41.885Z,0
2023-01-20T05:58:41.881Z,0
2023-01-20T05:59:41.871Z,0
2023-01-20T06:00:41.883Z,0
2023-01-20T06:01:41.889Z,0
2023-01-20T06:02:42.011Z,0
2023-01-20T06:03:41.968Z,0
2023-01-20T06:04:41.887Z,0
2023-01-20T06:05:41.884Z,0
2023-01-20T06:06:41.875Z,0
2023-01-20T06:07:41.889Z,0
2023-01-20T06:08:41.899Z,0
2023-01-20T06:09:41.880Z,0
2023-01-20T06:10:41.896Z,0
2023-01-20T06:11:41.895Z,0
2023-01-20T06:12:41.881Z,0
2023-01-20T06:13:41.886Z,0
2023-01-20T06:14:41.880Z,0
2023-01-20T06:15:41.892Z,0
2023-01-20T06:16:41.879Z,0
2023-01-20T06:17:41.881Z,0
2023-01-20T06:18:41.876Z,0
2023-01-20T06:19:41.883Z,0
2023-01-20T06:20:41.888Z,0
2023-01-20T06:21:41.885Z,0
2023-01-20T06:22:41.889Z,0
2023-01-20T06:23:41.880Z,0
2023-01-20T06:24:41.882Z,0
2023-01-20T06:25:41.874Z,0
2023-01-20T06:26:41.898Z,0
2023-01-20T06:27:41.897Z,0
2023-01-20T06:28:41.887Z,0
2023-01-20T06:29:41.882Z,0
2023-01-20T06:30:41.888Z,0
2023-01-20T06:31:42.005Z,0
2023-01-20T06:32:41.876Z,0
2023-01-20T06:33:41.915Z,0
2023-01-20T06:34:41.887Z,0
2023-01-20T06:35:41.879Z,0
2023-01-20T06:36:41.889Z,0
2023-01-20T06:37:41.936Z,0
2023-01-20T06:38:41.885Z,0
2023-01-20T06:39:41.879Z,0
2023-01-20T06:40:41.877Z,0
2023-01-20T06:41:41.876Z,0
2023-01-20T06:42:41.909Z,0
2023-01-20T06:43:41.966Z,0
2023-01-20T06:44:41.906Z,0
2023-01-20T06:45:41.887Z,0
2023-01-20T06:46:41.924Z,0
2023-01-20T06:47:41.879Z,0
2023-01-20T06:48:41.911Z,0
2023-01-20T06:49:41.892Z,0
2023-01-20T06:50:41.882Z,0
2023-01-20T06:51:41.971Z,0
2023-01-20T06:52:41.885Z,0
2023-01-20T06:53:41.891Z,0
2023-01-20T06:54:41.884Z,0
2023-01-20T06:55:41.884Z,0
2023-01-20T06:56:41.888Z,0
2023-01-20T06:57:41.903Z,0
2023-01-20T06:58:41.910Z,0
2023-01-20T06:59:41.886Z,0
2023-01-20T07:00:41.921Z,0
2023-01-20T07:01:41.988Z,0
2023-01-20T07:02:41.918Z,0
2023-01-20T07:03:41.892Z,0
2023-01-20T07:04:41.894Z,0
2023-01-20T07:05:41.895Z,0
2023-01-20T07:06:41.901Z,0
2023-01-20T07:07:41.897Z,0
2023-01-20T07:08:41.900Z,0
2023-01-20T07:09:41.901Z,0
2023-01-20T07:10:41.886Z,0
2023-01-20T07:11:41.884Z,0
2023-01-20T07:12:41.894Z,0
2023-01-20T07:13:41.900Z,0
2023-01-20T07:14:41.941Z,0
2023-01-20T07:15:41.901Z,0
2023-01-20T07:16:41.935Z,0
2023-01-20T07:17:41.902Z,0
2023-01-20T07:18:41.910Z,0
2023-01-20T07:19:41.912Z,0
2023-01-20T07:20:41.911Z,0
2023-01-20T07:21:41.909Z,0
2023-01-20T07:22:41.902Z,0
2023-01-20T07:23:41.911Z,0
2023-01-20T07:24:41.920Z,0
2023-01-20T07:25:41.912Z,0
2023-01-20T07:26:41.919Z,0
2023-01-20T07:27:41.912Z,0
2023-01-20T07:28:41.906Z,0
2023-01-20T07:29:41.929Z,0
2023-01-20T07:30:41.982Z,0
2023-01-20T07:31:41.980Z,0
2023-01-20T07:32:41.908Z,0
2023-01-20T07:33:41.914Z,0
2023-01-20T07:34:41.913Z,0
2023-01-20T07:35:41.909Z,0
2023-01-20T07:36:41.919Z,0
2023-01-20T07:37:41.916Z,0
2023-01-20T07:38:41.922Z,0
2023-01-20T07:39:41.922Z,0
2023-01-20T07:40:41.925Z,0
2023-01-20T07:41:41.912Z,0
2023-01-20T07:42:41.923Z,0
2023-01-20T07:43:41.915Z,0
2023-01-20T07:44:41.928Z,0
2023-01-20T07:45:41.968Z,0
2023-01-20T07:46:41.937Z,0
2023-01-20T07:47:41.918Z,0
2023-01-20T07:48:41.931Z,0
2023-01-20T07:49:41.929Z,0
2023-01-20T07:50:41.924Z,0
2023-01-20T07:51:41.916Z,0
2023-01-20T07:52:41.936Z,0
2023-01-20T07:53:41.945Z,0
2023-01-20T07:54:41.921Z,0
2023-01-20T07:55:41.934Z,0
2023-01-20T07:56:41.912Z,0
2023-01-20T07:57:41.927Z,0
2023-01-20T07:58:41.945Z,0
2023-01-20T07:59:41.923Z,0
2023-01-20T08:00:41.973Z,0
2023-01-20T08:01:42.025Z,0
2023-01-20T08:02:42.020Z,0
2023-01-20T08:03:41.925Z,0
2023-01-20T08:04:41.966Z,0
2023-01-20T08:05:41.958Z,0
2023-01-20T08:06:41.918Z,0
2023-01-20T08:07:41.954Z,0
2023-01-20T08:08:41.929Z,0
2023-01-20T08:09:41.929Z,0
2023-01-20T08:10:41.940Z,0
2023-01-20T08:11:41.925Z,0
2023-01-20T08:12:41.937Z,0
2023-01-20T08:13:41.932Z,0
2023-01-20T08:14:41.940Z,0
2023-01-20T08:15:41.925Z,0
2023-01-20T08:16:42.004Z,0
2023-01-20T08:17:41.916Z,0
2023-01-20T08:18:41.945Z,0
2023-01-20T08:19:41.921Z,0
2023-01-20T08:20:41.937Z,0
2023-01-20T08:21:41.923Z,0
2023-01-20T08:22:41.919Z,0
2023-01-20T08:23:41.934Z,0
2023-01-20T08:24:41.937Z,0
2023-01-20T08:25:41.940Z,0
2023-01-20T08:26:41.952Z,0
2023-01-20T08:27:41.950Z,0
2023-01-20T08:28:41.933Z,0
2023-01-20T08:29:41.928Z,0
2023-01-20T08:30:42.087Z,0
2023-01-20T08:31:42.049Z,0
2023-01-20T08:32:41.948Z,0
2023-01-20T08:33:41.948Z,0
2023-01-20T08:34:41.974Z,0
2023-01-20T08:35:41.953Z,0
2023-01-20T08:36:41.965Z,0
2023-01-20T08:37:41.936Z,0
2023-01-20T08:38:41.966Z,0
2023-01-20T08:39:41.952Z,0
2023-01-20T08:40:41.949Z,0
2023-01-20T08:41:41.944Z,0
2023-01-20T08:42:41.944Z,0
2023-01-20T08:43:41.944Z,0
2023-01-20T08:44:41.951Z,0
2023-01-20T08:45:41.988Z,0
2023-01-20T08:46:42.148Z,0
2023-01-20T08:47:41.949Z,0
2023-01-20T08:48:41.964Z,0
2023-01-20T08:49:41.949Z,0
2023-01-20T08:50:41.985Z,0
2023-01-20T08:51:42.057Z,0
2023-01-20T08:52:41.964Z,0
2023-01-20T08:53:41.952Z,0
2023-01-20T08:54:41.975Z,0
2023-01-20T08:55:41.962Z,0
2023-01-20T08:56:41.964Z,0
2023-01-20T08:57:41.953Z,0
2023-01-20T08:58:41.957Z,0
2023-01-20T08:59:41.961Z,0
2023-01-20T09:00:41.962Z,0
2023-01-20T09:01:42.118Z,0
2023-01-20T09:02:42.054Z,0
2023-01-20T09:03:44.981Z,0
2023-01-20T09:04:41.953Z,0
2023-01-20T09:05:41.967Z,0
2023-01-20T09:06:42.300Z,0
2023-01-20T09:07:41.965Z,0
2023-01-20T09:08:41.963Z,0
2023-01-20T09:09:41.971Z,0
2023-01-20T09:10:41.963Z,0
2023-01-20T09:11:41.990Z,0
2023-01-20T09:12:41.956Z,0
2023-01-20T09:13:41.963Z,0
2023-01-20T09:14:41.978Z,0
2023-01-20T09:15:42.064Z,0
2023-01-20T09:16:41.963Z,0
2023-01-20T09:17:41.969Z,0
2023-01-20T09:18:41.974Z,0
2023-01-20T09:19:41.961Z,0
2023-01-20T09:20:41.976Z,0
2023-01-20T09:21:41.995Z,0
2023-01-20T09:22:42.050Z,0
2023-01-20T09:23:41.979Z,0
2023-01-20T09:24:41.999Z,0
2023-01-20T09:25:41.981Z,0
2023-01-20T09:26:42.018Z,0
2023-01-20T09:27:41.994Z,0
2023-01-20T09:28:41.976Z,0
2023-01-20T09:29:41.974Z,0
2023-01-20T09:30:42.060Z,0
2023-01-20T09:31:42.097Z,0
2023-01-20T09:32:41.972Z,0
2023-01-20T09:33:41.971Z,0
2023-01-20T09:34:41.985Z,0
2023-01-20T09:35:42.002Z,0
2023-01-20T09:36:41.975Z,0
2023-01-20T09:37:42.006Z,0
2023-01-20T09:38:42.035Z,0
2023-01-20T09:39:41.982Z,0
2023-01-20T09:40:41.988Z,0
2023-01-20T09:41:42.243Z,0
2023-01-20T09:42:41.989Z,0
2023-01-20T09:43:41.992Z,0
2023-01-20T09:44:42.062Z,0
2023-01-20T09:45:42.003Z,0
2023-01-20T09:46:41.995Z,0
2023-01-20T09:47:41.997Z,0
2023-01-20T09:48:41.997Z,0
2023-01-20T09:49:42.000Z,0
2023-01-20T09:50:42.003Z,0
2023-01-20T09:51:42.004Z,0
2023-01-20T09:52:41.996Z,0
2023-01-20T09:53:42.006Z,0
2023-01-20T09:54:42.014Z,0
2023-01-20T09:55:41.985Z,0
2023-01-20T09:56:41.992Z,0
2023-01-20T09:57:42.000Z,0
2023-01-20T09:58:42.003Z,0
2023-01-20T09:59:42.001Z,0
2023-01-20T10:00:42.021Z,0
2023-01-20T10:01:42.062Z,0
2023-01-20T10:02:42.000Z,0
2023-01-20T10:03:42.012Z,0
2023-01-20T10:04:42.004Z,0
2023-01-20T10:05:42.056Z,0
2023-01-20T10:06:42.012Z,0
2023-01-20T10:07:42.004Z,0
2023-01-20T10:08:45.923Z,0
2023-01-20T10:09:42.001Z,0
2023-01-20T10:10:42.017Z,0
2023-01-20T10:11:42.079Z,0
2023-01-20T10:12:42.008Z,0
2023-01-20T10:13:42.016Z,0
2023-01-20T10:14:42.000Z,0
2023-01-20T10:15:42.054Z,0
2023-01-20T10:16:42.016Z,0
2023-01-20T10:17:42.021Z,0
2023-01-20T10:18:42.034Z,0
2023-01-20T10:19:42.013Z,0
2023-01-20T10:20:42.020Z,0
2023-01-20T10:21:42.026Z,0
2023-01-20T10:22:42.020Z,0
2023-01-20T10:23:42.025Z,0
2023-01-20T10:24:42.025Z,0
2023-01-20T10:25:42.013Z,0
2023-01-20T10:26:42.077Z,0
2023-01-20T10:27:42.011Z,0
2023-01-20T10:28:42.020Z,0
2023-01-20T10:29:42.027Z,0
2023-01-20T10:30:42.076Z,0
2023-01-20T10:31:42.070Z,0
2023-01-20T10:32:42.022Z,0
2023-01-20T10:33:42.031Z,0
2023-01-20T10:34:42.023Z,0
2023-01-20T10:35:42.039Z,0
2023-01-20T10:36:42.034Z,0
2023-01-20T10:37:42.028Z,0
2023-01-20T10:38:42.017Z,0
2023-01-20T10:39:42.049Z,0
2023-01-20T10:40:42.121Z,0
2023-01-20T10:41:42.023Z,0
2023-01-20T10:42:42.050Z,0
2023-01-20T10:43:42.033Z,0
2023-01-20T10:44:42.034Z,0
2023-01-20T10:45:42.034Z,0
2023-01-20T10:46:42.085Z,0
2023-01-20T10:47:42.029Z,0
2023-01-20T10:48:42.051Z,0
2023-01-20T10:49:42.044Z,0
2023-01-20T10:50:42.047Z,0
2023-01-20T10:51:42.037Z,0
2023-01-20T10:52:42.100Z,0
2023-01-20T10:53:42.044Z,0
2023-01-20T10:54:42.059Z,0
2023-01-20T10:55:42.042Z,0
2023-01-20T10:56:42.048Z,0
2023-01-20T10:57:42.032Z,0
2023-01-20T10:58:42.072Z,0
2023-01-20T10:59:42.046Z,0
2023-01-20T11:00:42.042Z,0
2023-01-20T11:01:42.089Z,0
2023-01-20T11:02:42.079Z,0
2023-01-20T11:03:42.041Z,0
2023-01-20T11:04:42.071Z,0
2023-01-20T11:05:42.043Z,0
2023-01-20T11:06:42.051Z,0
2023-01-20T11:07:42.059Z,0
2023-01-20T11:08:44.246Z,0
2023-01-20T11:09:42.045Z,0
2023-01-20T11:10:42.046Z,0
2023-01-20T11:11:42.076Z,0
2023-01-20T11:12:42.058Z,0
2023-01-20T11:13:42.061Z,0
2023-01-20T11:14:42.146Z,0
2023-01-20T11:15:42.040Z,0
2023-01-20T11:16:42.144Z,0
2023-01-20T11:17:42.058Z,0
2023-01-20T11:18:42.053Z,0
2023-01-20T11:19:42.056Z,0
2023-01-20T11:20:42.065Z,0
2023-01-20T11:21:42.054Z,0
2023-01-20T11:22:42.060Z,0
2023-01-20T11:23:42.065Z,0
2023-01-20T11:24:42.044Z,0
2023-01-20T11:25:42.061Z,0
2023-01-20T11:26:42.064Z,0
2023-01-20T11:27:42.070Z,0
2023-01-20T11:28:42.060Z,0
2023-01-20T11:29:42.063Z,0
2023-01-20T11:30:42.112Z,0
2023-01-20T11:31:42.134Z,0
2023-01-20T11:32:42.058Z,0
2023-01-20T11:33:42.051Z,0
2023-01-20T11:34:42.079Z,0
2023-01-20T11:35:42.054Z,0
2023-01-20T11:36:42.630Z,0
2023-01-20T11:37:42.057Z,0
2023-01-20T11:38:42.064Z,0
2023-01-20T11:39:42.056Z,0
2023-01-20T11:40:42.061Z,0
2023-01-20T11:41:42.079Z,0
2023-01-20T11:42:42.074Z,0
2023-01-20T11:43:42.086Z,0
2023-01-20T11:44:42.082Z,0
2023-01-20T11:45:42.078Z,0
2023-01-20T11:46:42.137Z,0
2023-01-20T11:47:42.071Z,0
2023-01-20T11:48:42.064Z,0
2023-01-20T11:49:42.079Z,0
2023-01-20T11:50:42.076Z,0
2023-01-20T11:51:42.132Z,0
2023-01-20T11:52:42.077Z,0
2023-01-20T11:53:42.072Z,0
2023-01-20T11:54:42.079Z,0
2023-01-20T11:55:42.087Z,0
2023-01-20T11:56:42.099Z,0
2023-01-20T11:57:42.085Z,0
2023-01-20T11:58:42.081Z,0
2023-01-20T11:59:42.084Z,0
2023-01-20T12:00:42.107Z,0
2023-01-20T12:01:42.114Z,0
2023-01-20T12:02:42.110Z,0
2023-01-20T12:03:42.136Z,0
2023-01-20T12:04:42.093Z,0
2023-01-20T12:05:42.097Z,0
2023-01-20T12:06:42.090Z,0
2023-01-20T12:07:42.106Z,0
2023-01-20T12:08:42.096Z,0
2023-01-20T12:09:42.089Z,0
2023-01-20T12:10:42.093Z,0
2023-01-20T12:11:42.098Z,0
2023-01-20T12:12:42.101Z,0
2023-01-20T12:13:42.104Z,0
2023-01-20T12:14:42.104Z,0
2023-01-20T12:15:42.090Z,0
2023-01-20T12:16:42.137Z,0
2023-01-20T12:17:42.108Z,0
2023-01-20T12:18:53.428Z,0
2023-01-20T12:19:42.101Z,0
2023-01-20T12:20:53.880Z,0
2023-01-20T12:21:42.093Z,0
2023-01-20T12:22:42.108Z,0
2023-01-20T12:23:42.101Z,0
2023-01-20T12:24:43.057Z,0
2023-01-20T12:25:42.105Z,0
2023-01-20T12:26:42.101Z,0
2023-01-20T12:27:42.122Z,0
2023-01-20T12:28:42.115Z,0
2023-01-20T12:29:42.102Z,0
2023-01-20T12:30:42.145Z,0
2023-01-20T12:31:42.120Z,0
2023-01-20T12:32:42.119Z,0
2023-01-20T12:33:42.111Z,0
2023-01-20T12:34:42.124Z,0
2023-01-20T12:35:42.107Z,0
2023-01-20T12:36:42.103Z,0
2023-01-20T12:37:42.121Z,0
2023-01-20T12:38:42.113Z,0
2023-01-20T12:39:42.123Z,0
2023-01-20T12:40:42.110Z,0
2023-01-20T12:41:42.116Z,0
2023-01-20T12:42:42.110Z,0
2023-01-20T12:43:42.133Z,0
2023-01-20T12:44:42.119Z,0
2023-01-20T12:45:42.180Z,0
2023-01-20T12:46:42.113Z,0
2023-01-20T12:47:42.121Z,0
2023-01-20T12:48:42.110Z,0
2023-01-20T12:49:42.130Z,0
2023-01-20T12:50:42.136Z,0
2023-01-20T12:51:42.116Z,0
2023-01-20T12:52:42.190Z,0
2023-01-20T12:53:42.116Z,0
2023-01-20T12:54:48.566Z,0
2023-01-20T12:55:42.118Z,0
2023-01-20T12:56:42.132Z,0
2023-01-20T12:57:42.130Z,0
2023-01-20T12:58:42.124Z,0
2023-01-20T12:59:42.118Z,6
2023-01-20T13:00:42.134Z,5.1000000000000005
2023-01-20T13:01:42.123Z,5.800000000000001
2023-01-20T13:02:42.134Z,5.5
2023-01-20T13:03:42.137Z,7.300000000000001
2023-01-20T13:04:42.123Z,9.700000000000001
2023-01-20T13:05:42.125Z,6.800000000000001
2023-01-20T13:06:42.148Z,11
2023-01-20T13:07:42.119Z,4.800000000000001
2023-01-20T13:08:42.135Z,5.5
2023-01-20T13:09:42.130Z,6.9
2023-01-20T13:10:42.148Z,12.200000000000001
2023-01-20T13:11:42.125Z,7.5
2023-01-20T13:12:42.141Z,7.1000000000000005
2023-01-20T13:13:56.241Z,3.1
2023-01-20T13:14:42.151Z,11.100000000000001
2023-01-20T13:15:42.147Z,7.5
2023-01-20T13:16:42.820Z,10.9
2023-01-20T13:17:42.130Z,3.8000000000000003
2023-01-20T13:18:42.136Z,3.3000000000000003
2023-01-20T13:19:42.148Z,0
2023-01-20T13:20:42.135Z,4
2023-01-20T13:21:42.146Z,4.800000000000001
2023-01-20T13:22:42.150Z,7.800000000000001
2023-01-20T13:23:42.156Z,5.5
2023-01-20T13:24:42.131Z,0
2023-01-20T13:25:42.134Z,0
2023-01-20T13:26:42.135Z,0
2023-01-20T13:27:42.145Z,0
2023-01-20T13:28:42.140Z,8
2023-01-20T13:29:42.133Z,8.700000000000001
2023-01-20T13:30:42.203Z,1.8
2023-01-20T13:31:42.184Z,6.6000000000000005
2023-01-20T13:32:42.157Z,4.2
2023-01-20T13:33:42.142Z,6.300000000000001
2023-01-20T13:34:42.138Z,11.5
2023-01-20T13:35:42.172Z,3.7
2023-01-20T13:36:42.134Z,12.5
2023-01-20T13:37:42.169Z,13.3
2023-01-20T13:38:42.172Z,9.4
2023-01-20T13:39:42.135Z,0.30000000000000004
2023-01-20T13:40:42.141Z,3.3000000000000003
2023-01-20T13:41:42.155Z,2.5
2023-01-20T13:42:42.149Z,6.4
2023-01-20T13:43:42.146Z,3.4000000000000004
2023-01-20T13:44:42.617Z,3.5
2023-01-20T13:45:42.163Z,4.5
2023-01-20T13:46:42.148Z,7.7
2023-01-20T13:47:42.149Z,8
2023-01-20T13:48:42.144Z,14.9
2023-01-20T13:49:42.138Z,15.100000000000001
2023-01-20T13:50:42.159Z,12.4
2023-01-20T13:51:42.140Z,9.600000000000001
2023-01-20T13:52:42.221Z,5
2023-01-20T13:53:42.147Z,9.4
2023-01-20T13:54:42.164Z,3.8000000000000003
2023-01-20T13:55:42.146Z,9.4
2023-01-20T13:56:42.151Z,4
2023-01-20T13:57:42.137Z,6.1000000000000005
2023-01-20T13:58:42.152Z,2.9000000000000004
2023-01-20T13:59:42.156Z,2.9000000000000004
2023-01-20T14:00:42.140Z,1.3
2023-01-20T14:01:42.239Z,0
2023-01-20T14:02:42.178Z,0
2023-01-20T14:03:42.164Z,0
2023-01-20T14:04:42.143Z,0
2023-01-20T14:05:42.160Z,0
2023-01-20T14:06:42.165Z,0
2023-01-20T14:07:42.162Z,0
2023-01-20T14:08:42.139Z,0
2023-01-20T14:09:42.161Z,0
2023-01-20T14:10:42.191Z,0
2023-01-20T14:11:42.158Z,0
2023-01-20T14:12:42.175Z,0
2023-01-20T14:13:42.176Z,0
2023-01-20T14:14:42.144Z,0
2023-01-20T14:15:42.236Z,0
2023-01-20T14:16:42.159Z,0
2023-01-20T14:17:42.147Z,0
2023-01-20T14:18:42.150Z,0
2023-01-20T14:19:42.164Z,0
2023-01-20T14:20:42.155Z,0
2023-01-20T14:21:42.153Z,0